Time;durP1;ratioP1;P1;durP2;ratioP2;P2;SDS_P1;SDS_P2;PMS_P1;PMS_P2;Temp;Humidity;BMP_temperature;BMP_pressure;BME280_temperature;BME280_humidity;BME280_pressure;Samples;Min_cycle;Max_cycle;Signal;HPM_P1;HPM_P2
2023/05/20 00:00:36;;;;;;;0.00;0.00;;;14.30;99.90;;;;;;5093342;28;20038;-88
2023/05/20 00:03:02;;;;;;;0.00;0.00;;;14.20;99.90;;;;;;5095122;28;20027;-88
2023/05/20 00:05:27;;;;;;;0.20;0.17;;;14.20;99.90;;;;;;5093526;28;20025;-88
2023/05/20 00:07:53;;;;;;;0.10;0.10;;;14.20;99.90;;;;;;5094710;28;20491;-88
2023/05/20 00:10:18;;;;;;;0.08;0.08;;;14.20;99.90;;;;;;5093653;28;20111;-88
2023/05/20 00:12:44;;;;;;;0.10;0.10;;;14.20;99.90;;;;;;5094875;28;20116;-88
2023/05/20 00:15:11;;;;;;;0.00;0.00;;;14.30;99.90;;;;;;5092877;28;20522;-88
2023/05/20 00:17:37;;;;;;;0.08;0.08;;;14.30;99.90;;;;;;5094491;28;20020;-88
2023/05/20 00:20:04;;;;;;;1.00;0.65;;;14.20;99.90;;;;;;5093235;28;20109;-87
2023/05/20 00:22:30;;;;;;;0.10;0.10;;;14.30;99.90;;;;;;5093068;28;20028;-88
2023/05/20 00:24:55;;;;;;;0.10;0.10;;;14.30;99.90;;;;;;5094804;28;20089;-88
2023/05/20 00:27:21;;;;;;;0.00;0.00;;;14.20;99.90;;;;;;5093043;28;20023;-88
2023/05/20 00:29:46;;;;;;;0.08;0.08;;;14.30;99.90;;;;;;5093748;28;20028;-87
2023/05/20 00:32:13;;;;;;;0.00;0.00;;;14.20;99.90;;;;;;5094589;28;20027;-88
2023/05/20 00:34:38;;;;;;;0.10;0.10;;;14.20;99.90;;;;;;5094074;28;20097;-88
2023/05/20 00:37:04;;;;;;;0.10;0.10;;;14.20;99.90;;;;;;5094340;28;20102;-88
2023/05/20 00:39:30;;;;;;;0.10;0.10;;;14.10;99.90;;;;;;5094102;28;20097;-88
2023/05/20 00:41:59;;;;;;;0.10;0.10;;;14.30;99.90;;;;;;5094368;28;20059;-88
2023/05/20 00:44:25;;;;;;;0.08;0.08;;;14.20;99.90;;;;;;5093583;28;20027;-88
2023/05/20 00:46:52;;;;;;;0.00;0.00;;;14.20;99.90;;;;;;5093984;28;20028;-88
2023/05/20 00:49:18;;;;;;;0.10;0.10;;;14.20;99.90;;;;;;5092947;28;20066;-87
2023/05/20 00:51:44;;;;;;;0.00;0.00;;;14.10;99.90;;;;;;5093860;28;20036;-88
2023/05/20 00:54:10;;;;;;;0.00;0.00;;;14.10;99.90;;;;;;5094201;28;20040;-88
2023/05/20 00:56:36;;;;;;;0.08;0.08;;;14.10;99.90;;;;;;5092550;28;20035;-88
2023/05/20 00:59:02;;;;;;;0.10;0.10;;;14.00;99.90;;;;;;5092149;28;20511;-88
2023/05/20 01:01:27;;;;;;;0.08;0.08;;;14.10;99.90;;;;;;5092750;28;20024;-88
2023/05/20 01:03:53;;;;;;;0.40;0.40;;;14.10;99.90;;;;;;5093891;28;20024;-88
2023/05/20 01:06:19;;;;;;;0.10;0.10;;;14.00;99.90;;;;;;5093604;28;20028;-88
2023/05/20 01:08:44;;;;;;;0.08;0.08;;;13.80;99.90;;;;;;5093555;28;20039;-88
2023/05/20 01:11:21;;;;;;;0.10;0.10;;;13.80;99.90;;;;;;5092394;28;20551;-87
2023/05/20 01:13:53;;;;;;;0.10;0.10;;;13.80;99.90;;;;;;5093184;28;20043;-88
2023/05/20 01:16:22;;;;;;;0.10;0.10;;;13.80;99.90;;;;;;5092332;28;20075;-88
2023/05/20 01:18:48;;;;;;;0.10;0.10;;;13.80;99.90;;;;;;5093405;28;20024;-88
2023/05/20 01:21:16;;;;;;;0.15;0.15;;;13.80;99.90;;;;;;5092176;28;20053;-87
2023/05/20 01:23:42;;;;;;;0.10;0.10;;;13.80;99.90;;;;;;5093390;28;20396;-88
2023/05/20 01:26:12;;;;;;;0.10;0.10;;;13.80;99.90;;;;;;5092314;28;20035;-88
2023/05/20 01:28:38;;;;;;;0.10;0.10;;;13.70;99.90;;;;;;5092883;28;20028;-88
2023/05/20 01:31:08;;;;;;;0.25;0.25;;;13.60;99.90;;;;;;5091626;28;20024;-88
2023/05/20 01:33:35;;;;;;;0.05;0.05;;;13.70;99.90;;;;;;5091889;28;20412;-88
2023/05/20 01:36:01;;;;;;;0.00;0.00;;;13.70;99.90;;;;;;5091896;28;20025;-88
2023/05/20 01:38:28;;;;;;;0.00;0.00;;;13.60;99.90;;;;;;5093456;28;20529;-88
2023/05/20 01:40:57;;;;;;;0.10;0.10;;;13.60;99.90;;;;;;5093044;28;20414;-88
2023/05/20 01:43:24;;;;;;;0.10;0.10;;;13.80;99.90;;;;;;5092523;28;20028;-88
2023/05/20 01:45:50;;;;;;;0.10;0.10;;;13.80;99.90;;;;;;5091826;28;20024;-88
2023/05/20 01:48:16;;;;;;;0.10;0.10;;;13.90;99.90;;;;;;5093274;28;20058;-88
2023/05/20 01:50:42;;;;;;;0.10;0.10;;;13.90;99.90;;;;;;5091884;28;20028;-87
2023/05/20 01:53:08;;;;;;;0.00;0.00;;;13.80;99.90;;;;;;5093069;28;20499;-88
2023/05/20 01:55:34;;;;;;;0.10;0.10;;;13.70;99.90;;;;;;5091722;28;20028;-88
2023/05/20 01:58:00;;;;;;;0.10;0.10;;;13.60;99.90;;;;;;5091434;28;20024;-87
2023/05/20 02:00:26;;;;;;;0.20;0.20;;;13.50;99.90;;;;;;5092856;28;20076;-88
2023/05/20 02:02:51;;;;;;;0.40;0.35;;;13.50;99.90;;;;;;5092837;28;20138;-88
2023/05/20 02:05:17;;;;;;;0.10;0.10;;;13.70;99.90;;;;;;5092715;28;20028;-88
2023/05/20 02:07:43;;;;;;;0.15;0.15;;;13.50;99.90;;;;;;5092229;28;20066;-88
2023/05/20 02:10:09;;;;;;;0.00;0.00;;;13.50;99.90;;;;;;5091402;28;20122;-88
2023/05/20 02:12:34;;;;;;;0.20;0.20;;;13.50;99.90;;;;;;5092563;28;20020;-88
2023/05/20 02:15:00;;;;;;;3.28;0.60;;;13.60;99.90;;;;;;5091368;28;20525;-88
2023/05/20 02:17:26;;;;;;;0.10;0.10;;;13.30;99.90;;;;;;5093003;28;20380;-88
2023/05/20 02:19:51;;;;;;;0.22;0.22;;;13.20;99.90;;;;;;5092621;28;20056;-88
2023/05/20 02:22:17;;;;;;;0.43;0.43;;;13.20;99.90;;;;;;5092640;28;20034;-87
2023/05/20 02:24:43;;;;;;;0.15;0.15;;;13.20;99.90;;;;;;5091193;28;20024;-87
2023/05/20 02:27:09;;;;;;;0.10;0.10;;;13.40;99.90;;;;;;5091370;28;20503;-88
2023/05/20 02:29:35;;;;;;;0.20;0.20;;;13.50;99.90;;;;;;5091090;28;20512;-88
2023/05/20 02:32:01;;;;;;;0.10;0.10;;;13.50;99.90;;;;;;5091410;28;20052;-88
2023/05/20 02:34:29;;;;;;;0.10;0.10;;;13.50;99.90;;;;;;5092247;28;20074;-88
2023/05/20 02:36:55;;;;;;;0.10;0.10;;;13.60;99.90;;;;;;5092524;28;20391;-87
2023/05/20 02:39:21;;;;;;;0.08;0.08;;;13.60;99.90;;;;;;5092551;28;20032;-88
2023/05/20 02:41:47;;;;;;;0.20;0.20;;;13.60;99.90;;;;;;5092176;28;20032;-88
2023/05/20 02:44:12;;;;;;;0.20;0.20;;;13.50;99.90;;;;;;5095903;28;20115;-88
2023/05/20 02:46:38;;;;;;;0.65;0.30;;;13.40;99.90;;;;;;5096290;28;20112;-88
2023/05/20 02:49:03;;;;;;;0.10;0.10;;;13.30;99.90;;;;;;5095319;28;20024;-88
2023/05/20 02:51:30;;;;;;;0.13;0.13;;;13.50;99.90;;;;;;5095213;28;20020;-88
2023/05/20 02:53:56;;;;;;;0.47;0.45;;;13.60;99.90;;;;;;5094898;28;20077;-88
2023/05/20 02:56:23;;;;;;;0.10;0.10;;;13.70;99.90;;;;;;5094694;28;20119;-88
2023/05/20 02:58:49;;;;;;;0.00;0.00;;;13.80;99.90;;;;;;5096549;28;20028;-88
2023/05/20 03:01:15;;;;;;;0.10;0.10;;;13.70;99.90;;;;;;5095954;28;20024;-87
2023/05/20 03:03:41;;;;;;;0.20;0.20;;;13.60;99.90;;;;;;5096469;28;20065;-88
2023/05/20 03:06:07;;;;;;;0.10;0.10;;;13.50;99.90;;;;;;5094710;28;20028;-88
2023/05/20 03:08:33;;;;;;;0.00;0.00;;;13.40;99.90;;;;;;5094611;28;20082;-87
2023/05/20 03:10:59;;;;;;;0.50;0.22;;;13.40;99.90;;;;;;5096016;28;20027;-88
2023/05/20 03:13:25;;;;;;;0.10;0.10;;;13.50;99.90;;;;;;5094529;28;20030;-88
2023/05/20 03:15:51;;;;;;;0.05;0.05;;;13.30;99.90;;;;;;5094650;28;20024;-87
2023/05/20 03:18:17;;;;;;;0.93;0.70;;;13.30;99.90;;;;;;5094684;28;20037;-87
2023/05/20 03:20:42;;;;;;;0.22;0.20;;;13.20;99.90;;;;;;5095496;28;20503;-88
2023/05/20 03:23:09;;;;;;;0.22;0.22;;;13.30;99.90;;;;;;5095606;28;20489;-88
2023/05/20 03:25:36;;;;;;;0.00;0.00;;;13.30;99.90;;;;;;5095479;28;20510;-88
2023/05/20 03:28:02;;;;;;;1.65;0.63;;;13.30;99.90;;;;;;5094528;28;20028;-88
2023/05/20 03:30:28;;;;;;;0.00;0.00;;;13.20;99.90;;;;;;5095468;28;20032;-88
2023/05/20 03:32:56;;;;;;;0.20;0.20;;;13.30;99.90;;;;;;5095458;28;20030;-87
2023/05/20 03:35:22;;;;;;;0.22;0.22;;;13.30;99.90;;;;;;5095478;28;20051;-88
2023/05/20 03:37:47;;;;;;;0.00;0.00;;;13.40;99.90;;;;;;5094163;28;20031;-88
2023/05/20 03:40:13;;;;;;;0.10;0.10;;;13.30;99.90;;;;;;5095295;28;20488;-88
2023/05/20 03:42:39;;;;;;;0.00;0.00;;;13.10;99.90;;;;;;5094529;28;20074;-88
2023/05/20 03:45:08;;;;;;;0.10;0.10;;;13.20;99.90;;;;;;5095149;28;20028;-88
2023/05/20 03:47:34;;;;;;;0.20;0.10;;;13.30;99.90;;;;;;5095223;28;20074;-88
2023/05/20 03:49:59;;;;;;;0.05;0.05;;;13.30;99.90;;;;;;5095470;28;20020;-88
2023/05/20 03:52:25;;;;;;;0.10;0.10;;;13.30;99.90;;;;;;5093581;28;20020;-88
2023/05/20 03:54:52;;;;;;;0.20;0.20;;;13.00;99.90;;;;;;5094962;28;20484;-88
2023/05/20 03:57:18;;;;;;;0.20;0.20;;;12.80;99.90;;;;;;5093730;28;20028;-88
2023/05/20 03:59:44;;;;;;;0.05;0.05;;;12.80;99.90;;;;;;5093715;28;20565;-88
2023/05/20 04:02:09;;;;;;;0.00;0.00;;;12.80;99.90;;;;;;5095186;28;20028;-88
2023/05/20 04:04:35;;;;;;;0.10;0.10;;;12.90;99.90;;;;;;5093490;28;20034;-88
2023/05/20 04:07:02;;;;;;;0.00;0.00;;;12.80;99.90;;;;;;5093568;28;20088;-88
2023/05/20 04:09:27;;;;;;;0.17;0.17;;;12.80;99.90;;;;;;5094834;28;20027;-87
2023/05/20 04:11:53;;;;;;;0.13;0.13;;;12.80;99.90;;;;;;5094833;28;20024;-87
2023/05/20 04:14:19;;;;;;;0.15;0.15;;;12.80;99.90;;;;;;5093966;28;20488;-88
2023/05/20 04:16:44;;;;;;;0.05;0.05;;;12.70;99.90;;;;;;5094729;28;20108;-88
2023/05/20 04:19:11;;;;;;;0.20;0.20;;;12.70;99.90;;;;;;5093198;28;20365;-88
2023/05/20 04:21:37;;;;;;;0.10;0.10;;;12.50;99.90;;;;;;5094202;28;20032;-88
2023/05/20 04:24:03;;;;;;;0.25;0.25;;;12.50;99.90;;;;;;5095293;28;20028;-87
2023/05/20 04:26:29;;;;;;;0.43;0.43;;;12.50;99.90;;;;;;5093288;28;20485;-87
2023/05/20 04:28:57;;;;;;;0.00;0.00;;;12.70;99.90;;;;;;5094563;28;20035;-88
2023/05/20 04:31:25;;;;;;;0.20;0.20;;;12.70;99.90;;;;;;5094516;28;20020;-88
2023/05/20 04:33:54;;;;;;;0.00;0.00;;;12.80;99.90;;;;;;5094516;28;20113;-88
2023/05/20 04:36:20;;;;;;;0.10;0.10;;;12.70;99.90;;;;;;5092871;28;20040;-88
2023/05/20 04:38:47;;;;;;;0.25;0.25;;;12.80;99.90;;;;;;5093381;28;20035;-88
2023/05/20 04:41:14;;;;;;;0.30;0.30;;;12.90;99.90;;;;;;5094194;28;20020;-88
2023/05/20 04:43:40;;;;;;;0.08;0.08;;;12.90;99.90;;;;;;5094451;28;20391;-88
2023/05/20 04:46:06;;;;;;;0.17;0.17;;;13.00;99.90;;;;;;5094037;28;20034;-89
2023/05/20 04:48:32;;;;;;;0.10;0.10;;;12.60;99.90;;;;;;5094195;28;20085;-88
2023/05/20 04:50:58;;;;;;;0.00;0.00;;;13.10;99.90;;;;;;5093714;28;20090;-88
2023/05/20 04:53:23;;;;;;;0.22;0.22;;;13.10;99.90;;;;;;5092656;28;20036;-88
2023/05/20 04:55:53;;;;;;;0.20;0.20;;;13.10;99.90;;;;;;5093834;28;20484;-88
2023/05/20 04:58:23;;;;;;;0.10;0.10;;;13.00;99.90;;;;;;5092954;28;20020;-88
2023/05/20 05:00:49;;;;;;;0.20;0.20;;;13.00;99.90;;;;;;5094254;28;20115;-88
2023/05/20 05:03:15;;;;;;;0.95;0.43;;;13.10;99.90;;;;;;5092751;28;20103;-88
2023/05/20 05:05:41;;;;;;;0.10;0.10;;;13.10;99.90;;;;;;5092925;28;20453;-88
2023/05/20 05:08:07;;;;;;;0.20;0.20;;;13.00;99.90;;;;;;5093591;28;20024;-88
2023/05/20 05:10:34;;;;;;;0.10;0.10;;;13.10;99.90;;;;;;5093672;28;20024;-88
2023/05/20 05:13:00;;;;;;;0.30;0.30;;;13.20;99.90;;;;;;5092251;28;20488;-88
2023/05/20 05:15:26;;;;;;;0.38;0.28;;;13.10;99.90;;;;;;5093529;28;20059;-88
2023/05/20 05:17:51;;;;;;;0.38;0.38;;;13.00;99.90;;;;;;5092186;28;20114;-87
2023/05/20 05:20:17;;;;;;;0.30;0.30;;;13.10;99.90;;;;;;5093111;28;20047;-88
2023/05/20 05:22:43;;;;;;;0.20;0.20;;;13.10;99.90;;;;;;5092787;28;20043;-88
2023/05/20 05:25:09;;;;;;;0.13;0.13;;;12.90;99.90;;;;;;5092117;28;20100;-87
2023/05/20 05:27:35;;;;;;;0.10;0.10;;;12.90;99.90;;;;;;5092339;28;20422;-87
2023/05/20 05:30:02;;;;;;;0.30;0.30;;;13.00;99.90;;;;;;5092089;28;20115;-88
2023/05/20 05:32:27;;;;;;;0.25;0.25;;;13.00;99.90;;;;;;5093058;28;20157;-88
2023/05/20 05:34:53;;;;;;;0.10;0.10;;;12.90;99.90;;;;;;5092845;28;20122;-88
2023/05/20 05:37:20;;;;;;;0.10;0.10;;;13.00;99.90;;;;;;5091639;28;20031;-88
2023/05/20 05:39:46;;;;;;;0.10;0.10;;;13.00;99.90;;;;;;5092899;28;20023;-88
2023/05/20 05:42:11;;;;;;;0.20;0.20;;;13.20;99.90;;;;;;5091516;28;20157;-87
2023/05/20 05:44:37;;;;;;;0.10;0.10;;;13.40;99.90;;;;;;5092797;28;20039;-87
2023/05/20 05:47:04;;;;;;;0.10;0.10;;;13.60;99.90;;;;;;5091271;28;20016;-87
2023/05/20 05:49:30;;;;;;;0.13;0.13;;;13.50;99.90;;;;;;5091925;28;20098;-88
2023/05/20 05:51:55;;;;;;;0.30;0.30;;;13.70;99.90;;;;;;5092784;28;20055;-87
2023/05/20 05:54:21;;;;;;;0.10;0.10;;;13.50;99.90;;;;;;5092783;28;20455;-88
2023/05/20 05:56:46;;;;;;;0.55;0.20;;;13.80;99.90;;;;;;5090912;28;20561;-86
2023/05/20 05:59:12;;;;;;;0.22;0.22;;;14.00;99.90;;;;;;5091894;28;20034;-88
2023/05/20 06:01:38;;;;;;;0.65;0.55;;;14.10;99.90;;;;;;5091206;28;20024;-87
2023/05/20 06:04:03;;;;;;;0.45;0.20;;;14.10;99.90;;;;;;5090844;28;20028;-88
2023/05/20 06:06:30;;;;;;;0.10;0.10;;;13.90;99.90;;;;;;5091825;28;20066;-88
2023/05/20 06:08:56;;;;;;;0.10;0.10;;;13.70;99.90;;;;;;5090791;28;20024;-88
2023/05/20 06:11:22;;;;;;;0.20;0.20;;;14.00;99.90;;;;;;5092597;28;20028;-88
2023/05/20 06:13:48;;;;;;;1.27;0.73;;;14.00;99.90;;;;;;5092176;28;20047;-88
2023/05/20 06:16:15;;;;;;;0.10;0.10;;;14.00;99.90;;;;;;5092857;28;20066;-88
2023/05/20 06:18:41;;;;;;;0.10;0.10;;;14.10;99.90;;;;;;5095200;28;20043;-89
2023/05/20 06:21:07;;;;;;;0.20;0.20;;;13.80;99.90;;;;;;5096955;28;20048;-89
2023/05/20 06:23:32;;;;;;;0.20;0.20;;;13.80;99.90;;;;;;5096977;28;20016;-89
2023/05/20 06:25:58;;;;;;;0.13;0.13;;;13.80;99.90;;;;;;5095848;28;20054;-89
2023/05/20 06:28:25;;;;;;;0.47;0.20;;;13.90;99.90;;;;;;5096816;28;20055;-90
2023/05/20 06:30:53;;;;;;;1.00;0.85;;;14.10;99.90;;;;;;5096696;28;20030;-88
2023/05/20 06:33:19;;;;;;;0.05;0.05;;;14.40;99.90;;;;;;5096627;28;20016;-91
2023/05/20 06:35:44;;;;;;;0.17;0.17;;;14.50;99.90;;;;;;5097510;28;20028;-93
2023/05/20 06:38:10;;;;;;;0.05;0.05;;;14.50;99.90;;;;;;5096207;28;20024;-88
2023/05/20 06:40:36;;;;;;;0.10;0.10;;;14.80;99.90;;;;;;5095991;28;20061;-88
2023/05/20 06:43:01;;;;;;;0.38;0.20;;;14.70;99.90;;;;;;5095242;28;20065;-91
2023/05/20 06:45:27;;;;;;;0.10;0.10;;;14.60;99.90;;;;;;5095812;28;20016;-89
2023/05/20 06:47:53;;;;;;;0.25;0.25;;;14.60;99.90;;;;;;5095232;28;20055;-89
2023/05/20 06:50:19;;;;;;;0.10;0.10;;;14.60;99.90;;;;;;5096634;28;20020;-91
2023/05/20 06:52:45;;;;;;;0.10;0.10;;;14.90;99.90;;;;;;5095757;28;20052;-94
2023/05/20 06:55:11;;;;;;;0.73;0.20;;;14.90;99.90;;;;;;5097076;28;20036;-89
2023/05/20 06:57:37;;;;;;;0.20;0.20;;;14.90;99.90;;;;;;5094721;28;20067;-83
2023/05/20 07:00:04;;;;;;;0.10;0.10;;;15.10;99.90;;;;;;5095092;28;20059;-83
2023/05/20 07:02:32;;;;;;;0.75;0.57;;;15.30;99.90;;;;;;5095140;28;20543;-84
2023/05/20 07:04:57;;;;;;;0.20;0.20;;;15.30;99.90;;;;;;5095687;28;20064;-85
2023/05/20 07:07:23;;;;;;;0.25;0.25;;;15.30;99.90;;;;;;5094894;28;20058;-82
2023/05/20 07:09:49;;;;;;;0.38;0.30;;;15.40;99.90;;;;;;5094978;28;20028;-83
2023/05/20 07:12:15;;;;;;;0.70;0.50;;;15.20;99.90;;;;;;5095213;28;20024;-81
2023/05/20 07:14:41;;;;;;;0.40;0.38;;;15.20;99.90;;;;;;5094699;28;20071;-82
2023/05/20 07:17:06;;;;;;;0.20;0.20;;;15.50;99.90;;;;;;5094861;28;20506;-82
2023/05/20 07:19:32;;;;;;;0.32;0.32;;;15.30;99.90;;;;;;5094310;28;20047;-80
2023/05/20 07:21:59;;;;;;;0.10;0.10;;;15.20;99.90;;;;;;5095177;28;20053;-79
2023/05/20 07:24:24;;;;;;;0.88;0.82;;;15.20;99.90;;;;;;5094408;28;20055;-79
2023/05/20 07:26:50;;;;;;;0.38;0.38;;;15.10;99.90;;;;;;5094220;28;20051;-80
2023/05/20 07:29:16;;;;;;;0.20;0.20;;;15.20;99.90;;;;;;5094316;28;20028;-85
2023/05/20 07:31:41;;;;;;;0.30;0.30;;;15.20;99.90;;;;;;5094024;28;20020;-82
2023/05/20 07:34:07;;;;;;;0.28;0.15;;;15.20;99.90;;;;;;5094845;28;20111;-82
2023/05/20 07:36:33;;;;;;;0.50;0.50;;;15.40;99.90;;;;;;5094167;28;20024;-82
2023/05/20 07:38:58;;;;;;;0.20;0.20;;;15.50;99.90;;;;;;5094680;28;20492;-83
2023/05/20 07:41:25;;;;;;;0.10;0.10;;;15.40;99.90;;;;;;5092014;28;20028;-83
2023/05/20 07:43:51;;;;;;;0.50;0.50;;;15.20;99.90;;;;;;5092206;28;20024;-83
2023/05/20 07:46:16;;;;;;;0.10;0.10;;;15.30;99.90;;;;;;5093816;28;20038;-82
2023/05/20 07:48:43;;;;;;;0.10;0.10;;;15.60;99.90;;;;;;5093834;28;20024;-83
2023/05/20 07:51:10;;;;;;;0.45;0.45;;;15.80;99.90;;;;;;5093796;28;20073;-86
2023/05/20 07:53:36;;;;;;;0.38;0.38;;;15.70;99.90;;;;;;5094003;28;20032;-82
2023/05/20 07:56:02;;;;;;;0.40;0.40;;;15.70;99.90;;;;;;5094586;28;20031;-81
2023/05/20 07:58:27;;;;;;;0.10;0.10;;;15.80;99.90;;;;;;5092305;28;20126;-80
2023/05/20 08:00:53;;;;;;;0.25;0.25;;;16.00;99.90;;;;;;5093467;28;20044;-80
2023/05/20 08:03:21;;;;;;;0.30;0.30;;;16.10;99.90;;;;;;5093401;28;20055;-81
2023/05/20 08:05:46;;;;;;;0.10;0.10;;;16.10;99.90;;;;;;5093467;28;20052;-80
2023/05/20 08:08:12;;;;;;;0.10;0.10;;;16.10;99.90;;;;;;5094066;28;20051;-84
2023/05/20 08:10:38;;;;;;;0.45;0.45;;;16.20;99.90;;;;;;5093908;28;20028;-81
2023/05/20 08:13:03;;;;;;;0.20;0.20;;;16.20;99.90;;;;;;5094034;28;20032;-81
2023/05/20 08:15:29;;;;;;;1.75;0.47;;;16.20;99.90;;;;;;5090962;28;20118;-81
2023/05/20 08:17:55;;;;;;;0.08;0.08;;;16.20;99.90;;;;;;5093537;28;20032;-81
2023/05/20 08:20:21;;;;;;;0.40;0.40;;;16.40;99.90;;;;;;5092236;28;20550;-83
2023/05/20 08:22:46;;;;;;;0.55;0.55;;;16.60;99.90;;;;;;5094008;28;20032;-82
2023/05/20 08:25:12;;;;;;;1.10;0.40;;;17.00;99.90;;;;;;5093869;28;20522;-82
2023/05/20 08:27:38;;;;;;;0.47;0.47;;;17.00;99.90;;;;;;5093775;28;20024;-81
2023/05/20 08:30:07;;;;;;;0.60;0.60;;;17.00;99.90;;;;;;5093623;28;20492;-82
2023/05/20 08:32:32;;;;;;;0.45;0.45;;;16.60;99.90;;;;;;5093612;28;20024;-82
2023/05/20 08:35:00;;;;;;;0.35;0.35;;;16.70;99.90;;;;;;5093583;28;20165;-82
2023/05/20 08:37:26;;;;;;;0.35;0.35;;;16.90;99.90;;;;;;5093543;28;20032;-82
2023/05/20 08:39:52;;;;;;;0.20;0.20;;;16.90;99.90;;;;;;5092863;28;20069;-81
2023/05/20 08:42:24;;;;;;;0.47;0.47;;;16.80;99.90;;;;;;5093278;28;20106;-81
2023/05/20 08:44:54;;;;;;;0.77;0.77;;;16.80;99.90;;;;;;5093288;28;20127;-82
2023/05/20 08:47:23;;;;;;;0.10;0.10;;;16.80;99.90;;;;;;5093305;28;20020;-82
2023/05/20 08:49:49;;;;;;;1.17;0.52;;;17.00;99.90;;;;;;5093664;28;20039;-82
2023/05/20 08:52:19;;;;;;;0.10;0.10;;;17.40;99.90;;;;;;5093130;28;20016;-82
2023/05/20 08:54:48;;;;;;;0.15;0.15;;;17.70;99.90;;;;;;5092977;28;20036;-81
2023/05/20 08:57:14;;;;;;;0.30;0.30;;;17.80;99.90;;;;;;5092628;28;20020;-82
2023/05/20 08:59:45;;;;;;;0.47;0.47;;;17.80;99.90;;;;;;5093189;28;20472;-82
2023/05/20 09:02:11;;;;;;;0.35;0.30;;;17.90;99.90;;;;;;5093058;28;20028;-82
2023/05/20 09:04:37;;;;;;;0.30;0.30;;;18.00;99.90;;;;;;5092971;28;20085;-84
2023/05/20 09:07:03;;;;;;;0.90;0.22;;;18.10;99.90;;;;;;5093450;28;20085;-84
2023/05/20 09:09:29;;;;;;;0.10;0.10;;;18.30;99.90;;;;;;5092958;28;20020;-83
2023/05/20 09:11:55;;;;;;;0.50;0.50;;;18.50;99.90;;;;;;5092506;28;20008;-84
2023/05/20 09:14:22;;;;;;;0.20;0.20;;;18.80;99.90;;;;;;5091240;28;20488;-83
2023/05/20 09:16:48;;;;;;;0.22;0.22;;;18.80;99.90;;;;;;5092849;28;20073;-82
2023/05/20 09:19:14;;;;;;;0.35;0.35;;;18.20;99.90;;;;;;5092695;28;20035;-85
2023/05/20 09:21:41;;;;;;;0.63;0.40;;;18.20;99.90;;;;;;5092688;28;20028;-83
2023/05/20 09:24:07;;;;;;;0.57;0.55;;;18.50;99.90;;;;;;5093014;28;20128;-85
2023/05/20 09:26:33;;;;;;;0.38;0.38;;;18.20;99.90;;;;;;5092130;28;20107;-83
2023/05/20 09:28:59;;;;;;;1.80;0.30;;;18.00;99.90;;;;;;5092814;28;20028;-82
2023/05/20 09:31:32;;;;;;;1.63;0.63;;;18.00;99.90;;;;;;5092907;28;20500;-83
2023/05/20 09:33:59;;;;;;;0.52;0.20;;;17.80;99.90;;;;;;5092577;28;20118;-81
2023/05/20 09:36:28;;;;;;;0.65;0.65;;;17.80;99.90;;;;;;5092595;28;20020;-82
2023/05/20 09:38:59;;;;;;;1.17;0.40;;;17.70;99.90;;;;;;5092447;28;20032;-82
2023/05/20 09:41:31;;;;;;;0.82;0.73;;;17.70;99.90;;;;;;5092544;28;20031;-82
2023/05/20 09:43:57;;;;;;;0.00;0.00;;;17.60;99.90;;;;;;5092014;28;20043;-83
2023/05/20 09:46:24;;;;;;;0.70;0.47;;;17.40;99.90;;;;;;5092238;28;20043;-83
2023/05/20 09:48:50;;;;;;;0.10;0.10;;;17.50;99.90;;;;;;5092744;28;20024;-83
2023/05/20 09:51:16;;;;;;;0.30;0.30;;;17.60;99.90;;;;;;5092350;28;20023;-82
2023/05/20 09:53:42;;;;;;;0.10;0.10;;;17.70;99.90;;;;;;5092183;28;20111;-82
2023/05/20 09:56:07;;;;;;;0.00;0.00;;;17.70;99.90;;;;;;5091843;28;20154;-83
2023/05/20 09:58:35;;;;;;;0.17;0.17;;;17.80;99.90;;;;;;5092146;28;20103;-84
2023/05/20 10:01:01;;;;;;;0.55;0.35;;;17.70;99.90;;;;;;5092290;28;20017;-86
2023/05/20 10:03:27;;;;;;;1.45;0.52;;;17.60;99.90;;;;;;5092707;28;20069;-84
2023/05/20 10:06:11;;;;;;;0.20;0.20;;;17.60;99.90;;;;;;5092020;28;20028;-84
2023/05/20 10:09:13;;;;;;;0.60;0.60;;;17.50;99.90;;;;;;5090178;28;20028;-81
2023/05/20 10:11:55;;;;;;;0.13;0.13;;;17.60;99.90;;;;;;5092195;28;20023;-81
2023/05/20 10:14:42;;;;;;;0.22;0.20;;;17.80;99.90;;;;;;5091881;28;20491;-81
2023/05/20 10:17:36;;;;;;;0.85;0.30;;;18.20;99.90;;;;;;5091850;28;20020;-84
2023/05/20 10:20:05;;;;;;;0.20;0.20;;;18.50;99.90;;;;;;5092205;28;20404;-83
2023/05/20 10:22:31;;;;;;;0.10;0.10;;;18.50;99.90;;;;;;5092096;28;20089;-83
2023/05/20 10:24:59;;;;;;;0.50;0.50;;;18.50;99.90;;;;;;5091917;28;20472;-83
2023/05/20 10:27:24;;;;;;;0.32;0.32;;;18.80;99.90;;;;;;5092313;28;20369;-83
2023/05/20 10:29:51;;;;;;;5.30;0.57;;;19.00;99.90;;;;;;5092043;28;20032;-83
2023/05/20 10:32:27;;;;;;;0.30;0.30;;;19.40;99.90;;;;;;5091155;28;20036;-84
2023/05/20 10:34:59;;;;;;;0.28;0.25;;;19.70;99.90;;;;;;5092025;28;20404;-83
2023/05/20 10:37:31;;;;;;;0.38;0.38;;;19.80;99.90;;;;;;5092211;28;20365;-86
2023/05/20 10:40:24;;;;;;;0.43;0.43;;;19.70;99.90;;;;;;5091274;28;20119;-86
2023/05/20 10:42:50;;;;;;;0.20;0.20;;;19.60;99.90;;;;;;5091044;28;20028;-86
2023/05/20 10:45:27;;;;;;;0.90;0.30;;;19.50;99.90;;;;;;5091696;28;20476;-84
2023/05/20 10:47:57;;;;;;;0.28;0.28;;;19.40;99.90;;;;;;5091769;28;20020;-84
2023/05/20 10:50:36;;;;;;;0.30;0.30;;;19.10;99.90;;;;;;5092124;28;20407;-85
2023/05/20 10:53:06;;;;;;;0.15;0.15;;;19.10;99.90;;;;;;5084746;28;20058;-86
2023/05/20 10:55:39;;;;;;;0.52;0.45;;;19.10;99.90;;;;;;5091620;28;20093;-84
2023/05/20 10:58:05;;;;;;;0.80;0.50;;;19.10;99.90;;;;;;5091915;28;20028;-84
2023/05/20 11:00:37;;;;;;;0.10;0.10;;;19.20;99.90;;;;;;5091305;28;20028;-86
2023/05/20 11:03:05;;;;;;;0.17;0.17;;;19.30;99.90;;;;;;5091679;28;20034;-85
2023/05/20 11:05:32;;;;;;;0.20;0.20;;;19.30;99.90;;;;;;5094098;28;20530;-83
2023/05/20 11:08:06;;;;;;;0.20;0.20;;;19.40;99.90;;;;;;5093419;28;20403;-83
2023/05/20 11:10:33;;;;;;;0.20;0.20;;;19.30;99.90;;;;;;5096083;28;20028;-86
2023/05/20 11:13:01;;;;;;;0.30;0.30;;;19.00;99.90;;;;;;5095766;28;20024;-85
2023/05/20 11:15:26;;;;;;;0.17;0.17;;;19.00;99.90;;;;;;5096034;28;20044;-95
2023/05/20 11:17:57;;;;;;;0.50;0.50;;;19.20;99.90;;;;;;5095212;28;20547;-89
2023/05/20 11:20:23;;;;;;;0.77;0.68;;;19.10;99.90;;;;;;5093373;28;20462;-93
2023/05/20 11:22:53;;;;;;;0.32;0.32;;;19.30;99.90;;;;;;5096004;28;20024;-86
2023/05/20 11:25:22;;;;;;;0.50;0.50;;;19.20;99.90;;;;;;5095063;28;20035;-83
2023/05/20 11:27:49;;;;;;;0.20;0.13;;;19.20;99.90;;;;;;5095790;28;20051;-90
2023/05/20 11:30:15;;;;;;;0.15;0.15;;;19.10;99.90;;;;;;5094855;28;20044;-87
2023/05/20 11:33:00;;;;;;;0.40;0.40;;;19.30;99.90;;;;;;5094757;28;20074;-87
2023/05/20 11:35:28;;;;;;;0.30;0.30;;;19.50;99.90;;;;;;5094871;28;20050;-86
2023/05/20 11:38:02;;;;;;;0.32;0.20;;;19.60;99.90;;;;;;5095509;28;20012;-89
2023/05/20 11:40:28;;;;;;;0.32;0.32;;;19.50;99.90;;;;;;5093369;28;20442;-90
2023/05/20 11:42:57;;;;;;;0.17;0.17;;;19.90;99.90;;;;;;5094408;28;20051;-88
2023/05/20 11:45:23;;;;;;;0.40;0.40;;;20.20;99.90;;;;;;5094601;28;20024;-88
2023/05/20 11:48:00;;;;;;;0.38;0.38;;;20.30;99.90;;;;;;5094864;28;20502;-86
2023/05/20 11:50:26;;;;;;;0.10;0.10;;;20.70;99.90;;;;;;5092725;28;20043;-85
2023/05/20 11:52:57;;;;;;;0.47;0.47;;;20.50;99.90;;;;;;5094917;28;20055;-89
2023/05/20 11:55:23;;;;;;;0.65;0.45;;;20.50;99.90;;;;;;5093744;28;20476;-86
2023/05/20 11:57:50;;;;;;;1.00;0.88;;;20.80;99.90;;;;;;5094652;28;20111;-88
2023/05/20 12:00:16;;;;;;;0.40;0.38;;;20.60;99.90;;;;;;5095364;28;20141;-91
2023/05/20 12:02:42;;;;;;;0.13;0.13;;;20.60;99.90;;;;;;5093271;28;20024;-86
2023/05/20 12:05:09;;;;;;;0.25;0.25;;;20.40;99.90;;;;;;5094517;28;20028;-86
2023/05/20 12:07:35;;;;;;;0.10;0.10;;;20.40;99.90;;;;;;5094064;28;20027;-86
2023/05/20 12:10:02;;;;;;;0.20;0.20;;;20.40;99.90;;;;;;5094274;28;20115;-86
2023/05/20 12:12:28;;;;;;;0.15;0.15;;;20.30;99.90;;;;;;5094116;28;20472;-86
2023/05/20 12:14:53;;;;;;;0.70;0.70;;;20.20;99.90;;;;;;5094258;28;20089;-86
2023/05/20 12:17:19;;;;;;;0.63;0.63;;;20.30;99.90;;;;;;5094513;28;20016;-85
2023/05/20 12:19:45;;;;;;;0.22;0.22;;;20.30;99.90;;;;;;5093385;28;20056;-85
2023/05/20 12:22:10;;;;;;;1.20;0.80;;;20.20;99.90;;;;;;5094178;28;20016;-86
2023/05/20 12:24:36;;;;;;;0.38;0.38;;;20.20;99.90;;;;;;5092761;28;20498;-85
2023/05/20 12:27:02;;;;;;;0.55;0.55;;;19.90;99.90;;;;;;5094325;28;20020;-85
2023/05/20 12:29:28;;;;;;;0.45;0.35;;;20.00;99.90;;;;;;5093871;28;20031;-86
2023/05/20 12:31:54;;;;;;;0.50;0.40;;;20.10;99.90;;;;;;5093846;28;20103;-86
2023/05/20 12:34:20;;;;;;;0.32;0.22;;;20.30;99.90;;;;;;5093617;28;20036;-85
2023/05/20 12:36:46;;;;;;;0.90;0.68;;;20.80;99.90;;;;;;5093705;28;20085;-85
2023/05/20 12:39:13;;;;;;;0.30;0.30;;;20.90;99.90;;;;;;5092349;28;20032;-86
2023/05/20 12:41:41;;;;;;;0.30;0.30;;;20.60;99.90;;;;;;5093729;28;20587;-86
2023/05/20 12:44:06;;;;;;;23.02;2.03;;;20.50;99.90;;;;;;5093337;28;20039;-86
2023/05/20 12:46:32;;;;;;;0.70;0.70;;;20.20;99.90;;;;;;5093799;28;20028;-86